sensor_id;sensor_type;location;lat;lon;timestamp;temperature;humidity
52575;DHT22;38468;48.114;-1.684;2023-04-01T00:01:11;11.80;72.00
52575;DHT22;38468;48.114;-1.684;2023-04-01T00:03:14;11.80;71.90
52575;DHT22;38468;48.114;-1.684;2023-04-01T00:05:15;11.70;72.10
52575;DHT22;38468;48.114;-1.684;2023-04-01T00:07:16;11.70;72.10
52575;DHT22;38468;48.114;-1.684;2023-04-01T00:09:17;11.50;72.80
52575;DHT22;38468;48.114;-1.684;2023-04-01T00:11:18;11.50;72.90
52575;DHT22;38468;48.114;-1.684;2023-04-01T00:13:19;11.50;72.80
52575;DHT22;38468;48.114;-1.684;2023-04-01T00:15:20;11.50;72.70
52575;DHT22;38468;48.114;-1.684;2023-04-01T00:17:21;11.50;72.50
52575;DHT22;38468;48.114;-1.684;2023-04-01T00:19:21;11.50;72.40
52575;DHT22;38468;48.114;-1.684;2023-04-01T00:21:22;11.50;72.60
52575;DHT22;38468;48.114;-1.684;2023-04-01T00:23:23;11.40;72.90
52575;DHT22;38468;48.114;-1.684;2023-04-01T00:25:24;11.40;72.80
52575;DHT22;38468;48.114;-1.684;2023-04-01T00:27:25;11.40;72.80
52575;DHT22;38468;48.114;-1.684;2023-04-01T00:29:26;11.40;72.60
52575;DHT22;38468;48.114;-1.684;2023-04-01T00:31:29;11.40;72.80
52575;DHT22;38468;48.114;-1.684;2023-04-01T00:33:30;11.40;72.50
52575;DHT22;38468;48.114;-1.684;2023-04-01T00:35:31;11.40;72.40
52575;DHT22;38468;48.114;-1.684;2023-04-01T00:37:35;11.40;72.50
52575;DHT22;38468;48.114;-1.684;2023-04-01T00:39:37;11.40;72.50
52575;DHT22;38468;48.114;-1.684;2023-04-01T00:41:37;11.40;72.60
52575;DHT22;38468;48.114;-1.684;2023-04-01T00:43:38;11.40;72.60
52575;DHT22;38468;48.114;-1.684;2023-04-01T00:45:43;11.40;72.60
52575;DHT22;38468;48.114;-1.684;2023-04-01T00:47:44;11.40;72.90
52575;DHT22;38468;48.114;-1.684;2023-04-01T00:49:47;11.40;72.90
52575;DHT22;38468;48.114;-1.684;2023-04-01T00:51:50;11.40;72.90
52575;DHT22;38468;48.114;-1.684;2023-04-01T00:53:54;11.40;72.80
52575;DHT22;38468;48.114;-1.684;2023-04-01T00:56:01;11.40;73.10
52575;DHT22;38468;48.114;-1.684;2023-04-01T00:58:05;11.40;73.30
52575;DHT22;38468;48.114;-1.684;2023-04-01T01:00:10;11.40;73.30
52575;DHT22;38468;48.114;-1.684;2023-04-01T01:02:13;11.40;73.50
52575;DHT22;38468;48.114;-1.684;2023-04-01T01:06:30;11.30;73.80
52575;DHT22;38468;48.114;-1.684;2023-04-01T01:11:01;11.30;73.80
52575;DHT22;38468;48.114;-1.684;2023-04-01T01:17:47;11.20;73.90
52575;DHT22;38468;48.114;-1.684;2023-04-01T01:20:03;11.30;73.60
52575;DHT22;38468;48.114;-1.684;2023-04-01T01:24:43;11.20;73.30
52575;DHT22;38468;48.114;-1.684;2023-04-01T01:27:04;11.20;73.50
52575;DHT22;38468;48.114;-1.684;2023-04-01T01:31:37;11.20;73.40
52575;DHT22;38468;48.114;-1.684;2023-04-01T01:35:59;11.20;73.30
52575;DHT22;38468;48.114;-1.684;2023-04-01T01:38:14;11.30;73.10
52575;DHT22;38468;48.114;-1.684;2023-04-01T01:40:17;11.30;73.00
52575;DHT22;38468;48.114;-1.684;2023-04-01T01:42:19;11.20;73.00
52575;DHT22;38468;48.114;-1.684;2023-04-01T01:44:21;11.20;72.90
52575;DHT22;38468;48.114;-1.684;2023-04-01T01:46:24;11.30;72.90
52575;DHT22;38468;48.114;-1.684;2023-04-01T01:48:27;11.30;72.90
52575;DHT22;38468;48.114;-1.684;2023-04-01T01:50:30;11.30;73.10
52575;DHT22;38468;48.114;-1.684;2023-04-01T01:52:30;11.30;73.00
52575;DHT22;38468;48.114;-1.684;2023-04-01T01:54:31;11.30;72.90
52575;DHT22;38468;48.114;-1.684;2023-04-01T01:56:33;11.30;73.00
52575;DHT22;38468;48.114;-1.684;2023-04-01T01:58:42;11.20;73.10
52575;DHT22;38468;48.114;-1.684;2023-04-01T02:00:48;11.20;73.20
52575;DHT22;38468;48.114;-1.684;2023-04-01T02:02:50;11.20;73.30
52575;DHT22;38468;48.114;-1.684;2023-04-01T02:04:52;11.20;73.10
52575;DHT22;38468;48.114;-1.684;2023-04-01T02:07:02;11.20;73.30
52575;DHT22;38468;48.114;-1.684;2023-04-01T02:09:06;11.20;73.20
52575;DHT22;38468;48.114;-1.684;2023-04-01T02:11:11;11.20;73.30
52575;DHT22;38468;48.114;-1.684;2023-04-01T02:13:31;11.20;73.30
52575;DHT22;38468;48.114;-1.684;2023-04-01T02:15:40;11.10;73.30
52575;DHT22;38468;48.114;-1.684;2023-04-01T02:17:46;11.20;73.30
52575;DHT22;38468;48.114;-1.684;2023-04-01T02:19:56;11.20;73.20
52575;DHT22;38468;48.114;-1.684;2023-04-01T02:22:00;11.20;73.30
52575;DHT22;38468;48.114;-1.684;2023-04-01T02:24:04;11.20;73.20
52575;DHT22;38468;48.114;-1.684;2023-04-01T02:26:07;11.10;73.10
52575;DHT22;38468;48.114;-1.684;2023-04-01T02:28:10;11.10;73.00
52575;DHT22;38468;48.114;-1.684;2023-04-01T02:30:14;11.10;73.10
52575;DHT22;38468;48.114;-1.684;2023-04-01T02:32:15;11.10;73.20
52575;DHT22;38468;48.114;-1.684;2023-04-01T02:34:17;11.00;73.40
52575;DHT22;38468;48.114;-1.684;2023-04-01T02:36:18;11.00;73.40
52575;DHT22;38468;48.114;-1.684;2023-04-01T02:38:19;11.00;73.50
52575;DHT22;38468;48.114;-1.684;2023-04-01T02:40:20;11.00;73.60
52575;DHT22;38468;48.114;-1.684;2023-04-01T02:42:22;11.00;73.70
52575;DHT22;38468;48.114;-1.684;2023-04-01T02:44:22;11.00;73.70
52575;DHT22;38468;48.114;-1.684;2023-04-01T02:46:23;11.00;73.80
52575;DHT22;38468;48.114;-1.684;2023-04-01T02:48:24;11.00;73.80
52575;DHT22;38468;48.114;-1.684;2023-04-01T02:50:25;11.00;73.80
52575;DHT22;38468;48.114;-1.684;2023-04-01T02:52:26;11.00;73.80
52575;DHT22;38468;48.114;-1.684;2023-04-01T02:54:27;10.90;73.90
52575;DHT22;38468;48.114;-1.684;2023-04-01T02:56:28;11.00;73.90
52575;DHT22;38468;48.114;-1.684;2023-04-01T02:58:28;10.90;73.90
52575;DHT22;38468;48.114;-1.684;2023-04-01T03:00:29;10.90;73.80
52575;DHT22;38468;48.114;-1.684;2023-04-01T03:02:30;10.90;74.00
52575;DHT22;38468;48.114;-1.684;2023-04-01T03:04:31;10.90;73.90
52575;DHT22;38468;48.114;-1.684;2023-04-01T03:06:31;10.90;74.10
52575;DHT22;38468;48.114;-1.684;2023-04-01T03:08:32;10.80;74.20
52575;DHT22;38468;48.114;-1.684;2023-04-01T03:10:32;10.80;74.20
52575;DHT22;38468;48.114;-1.684;2023-04-01T03:12:33;10.80;74.50
52575;DHT22;38468;48.114;-1.684;2023-04-01T03:14:34;10.80;74.50
52575;DHT22;38468;48.114;-1.684;2023-04-01T03:16:35;10.80;74.60
52575;DHT22;38468;48.114;-1.684;2023-04-01T03:18:35;10.90;74.40
52575;DHT22;38468;48.114;-1.684;2023-04-01T03:20:36;10.90;74.40
52575;DHT22;38468;48.114;-1.684;2023-04-01T03:22:37;10.90;74.30
52575;DHT22;38468;48.114;-1.684;2023-04-01T03:24:38;10.90;74.30
52575;DHT22;38468;48.114;-1.684;2023-04-01T03:26:38;10.90;74.40
52575;DHT22;38468;48.114;-1.684;2023-04-01T03:28:39;10.80;74.60
52575;DHT22;38468;48.114;-1.684;2023-04-01T03:30:40;10.80;74.60
52575;DHT22;38468;48.114;-1.684;2023-04-01T03:32:40;10.80;74.90
52575;DHT22;38468;48.114;-1.684;2023-04-01T03:34:41;10.80;74.90
52575;DHT22;38468;48.114;-1.684;2023-04-01T03:36:42;10.70;74.70
52575;DHT22;38468;48.114;-1.684;2023-04-01T03:38:44;10.80;74.90
52575;DHT22;38468;48.114;-1.684;2023-04-01T03:40:45;10.70;75.10
52575;DHT22;38468;48.114;-1.684;2023-04-01T03:42:46;10.80;74.90
52575;DHT22;38468;48.114;-1.684;2023-04-01T03:44:46;10.80;74.80
52575;DHT22;38468;48.114;-1.684;2023-04-01T03:46:47;10.70;75.30
52575;DHT22;38468;48.114;-1.684;2023-04-01T03:48:47;10.70;75.20
52575;DHT22;38468;48.114;-1.684;2023-04-01T03:50:48;10.70;75.20
52575;DHT22;38468;48.114;-1.684;2023-04-01T03:52:49;10.80;75.10
52575;DHT22;38468;48.114;-1.684;2023-04-01T03:54:49;10.70;75.00
52575;DHT22;38468;48.114;-1.684;2023-04-01T03:56:50;10.80;74.80
52575;DHT22;38468;48.114;-1.684;2023-04-01T03:58:51;10.80;74.80
52575;DHT22;38468;48.114;-1.684;2023-04-01T04:00:51;10.80;74.80
52575;DHT22;38468;48.114;-1.684;2023-04-01T04:02:52;10.80;74.80
52575;DHT22;38468;48.114;-1.684;2023-04-01T04:04:53;10.80;74.90
52575;DHT22;38468;48.114;-1.684;2023-04-01T04:06:54;10.90;74.70
52575;DHT22;38468;48.114;-1.684;2023-04-01T04:08:55;10.90;74.50
52575;DHT22;38468;48.114;-1.684;2023-04-01T04:10:56;10.90;74.60
52575;DHT22;38468;48.114;-1.684;2023-04-01T04:12:56;10.90;74.80
52575;DHT22;38468;48.114;-1.684;2023-04-01T04:14:57;10.90;74.90
52575;DHT22;38468;48.114;-1.684;2023-04-01T04:16:58;10.90;74.90
52575;DHT22;38468;48.114;-1.684;2023-04-01T04:18:59;10.90;74.90
52575;DHT22;38468;48.114;-1.684;2023-04-01T04:20:59;10.90;74.90
52575;DHT22;38468;48.114;-1.684;2023-04-01T04:23:00;10.90;75.00
52575;DHT22;38468;48.114;-1.684;2023-04-01T04:25:00;11.00;74.80
52575;DHT22;38468;48.114;-1.684;2023-04-01T04:27:02;11.00;74.70
52575;DHT22;38468;48.114;-1.684;2023-04-01T04:29:03;11.00;74.60
52575;DHT22;38468;48.114;-1.684;2023-04-01T04:31:04;11.10;74.40
52575;DHT22;38468;48.114;-1.684;2023-04-01T04:33:08;11.10;74.30
52575;DHT22;38468;48.114;-1.684;2023-04-01T04:35:08;11.10;74.10
52575;DHT22;38468;48.114;-1.684;2023-04-01T04:37:10;11.10;74.00
52575;DHT22;38468;48.114;-1.684;2023-04-01T04:39:10;11.10;73.80
52575;DHT22;38468;48.114;-1.684;2023-04-01T04:41:12;11.10;73.80
52575;DHT22;38468;48.114;-1.684;2023-04-01T04:43:14;11.00;73.80
52575;DHT22;38468;48.114;-1.684;2023-04-01T04:45:15;10.90;73.80
52575;DHT22;38468;48.114;-1.684;2023-04-01T04:47:16;10.90;74.00
52575;DHT22;38468;48.114;-1.684;2023-04-01T04:49:17;10.90;74.00
52575;DHT22;38468;48.114;-1.684;2023-04-01T04:51:19;10.90;74.10
52575;DHT22;38468;48.114;-1.684;2023-04-01T04:53:20;10.90;74.00
52575;DHT22;38468;48.114;-1.684;2023-04-01T04:55:21;10.90;74.10
52575;DHT22;38468;48.114;-1.684;2023-04-01T04:57:22;10.90;74.10
52575;DHT22;38468;48.114;-1.684;2023-04-01T04:59:22;10.90;74.10
52575;DHT22;38468;48.114;-1.684;2023-04-01T05:01:23;10.90;74.00
52575;DHT22;38468;48.114;-1.684;2023-04-01T05:03:24;10.90;74.10
52575;DHT22;38468;48.114;-1.684;2023-04-01T05:05:25;10.90;74.20
52575;DHT22;38468;48.114;-1.684;2023-04-01T05:07:26;10.90;74.10
52575;DHT22;38468;48.114;-1.684;2023-04-01T05:09:26;10.90;74.00
52575;DHT22;38468;48.114;-1.684;2023-04-01T05:11:27;10.80;74.20
52575;DHT22;38468;48.114;-1.684;2023-04-01T05:13:28;10.80;74.00
52575;DHT22;38468;48.114;-1.684;2023-04-01T05:15:29;10.80;74.20
52575;DHT22;38468;48.114;-1.684;2023-04-01T05:17:30;10.80;74.20
52575;DHT22;38468;48.114;-1.684;2023-04-01T05:19:30;10.70;74.60
52575;DHT22;38468;48.114;-1.684;2023-04-01T05:21:31;10.70;74.70
52575;DHT22;38468;48.114;-1.684;2023-04-01T05:23:32;10.60;75.30
52575;DHT22;38468;48.114;-1.684;2023-04-01T05:25:33;10.60;75.10
52575;DHT22;38468;48.114;-1.684;2023-04-01T05:27:34;10.60;75.20
52575;DHT22;38468;48.114;-1.684;2023-04-01T05:29:35;10.50;75.50
52575;DHT22;38468;48.114;-1.684;2023-04-01T05:31:35;10.50;75.50
52575;DHT22;38468;48.114;-1.684;2023-04-01T05:33:36;10.60;75.50
52575;DHT22;38468;48.114;-1.684;2023-04-01T05:35:37;10.50;75.30
52575;DHT22;38468;48.114;-1.684;2023-04-01T05:37:38;10.40;76.20
52575;DHT22;38468;48.114;-1.684;2023-04-01T05:39:39;10.40;76.10
52575;DHT22;38468;48.114;-1.684;2023-04-01T05:41:40;10.40;75.90
52575;DHT22;38468;48.114;-1.684;2023-04-01T05:43:41;10.40;75.90
52575;DHT22;38468;48.114;-1.684;2023-04-01T05:45:42;10.30;76.20
52575;DHT22;38468;48.114;-1.684;2023-04-01T05:47:43;10.40;76.10
52575;DHT22;38468;48.114;-1.684;2023-04-01T05:49:43;10.40;75.80
52575;DHT22;38468;48.114;-1.684;2023-04-01T05:51:44;10.40;75.80
52575;DHT22;38468;48.114;-1.684;2023-04-01T05:53:45;10.40;75.70
52575;DHT22;38468;48.114;-1.684;2023-04-01T05:55:45;10.40;75.70
52575;DHT22;38468;48.114;-1.684;2023-04-01T05:57:46;10.30;75.90
52575;DHT22;38468;48.114;-1.684;2023-04-01T05:59:48;10.40;75.80
52575;DHT22;38468;48.114;-1.684;2023-04-01T06:01:49;10.40;75.80
52575;DHT22;38468;48.114;-1.684;2023-04-01T06:03:50;10.30;75.90
52575;DHT22;38468;48.114;-1.684;2023-04-01T06:05:50;10.30;76.00
52575;DHT22;38468;48.114;-1.684;2023-04-01T06:07:58;10.40;76.00
52575;DHT22;38468;48.114;-1.684;2023-04-01T06:09:59;10.30;76.20
52575;DHT22;38468;48.114;-1.684;2023-04-01T06:12:23;10.40;75.90
52575;DHT22;38468;48.114;-1.684;2023-04-01T06:21:24;10.40;76.00
52575;DHT22;38468;48.114;-1.684;2023-04-01T06:24:01;10.40;75.90
52575;DHT22;38468;48.114;-1.684;2023-04-01T06:49:44;10.70;75.30
52575;DHT22;38468;48.114;-1.684;2023-04-01T06:52:24;10.70;75.30
52575;DHT22;38468;48.114;-1.684;2023-04-01T06:56:34;10.70;75.50
52575;DHT22;38468;48.114;-1.684;2023-04-01T06:58:42;10.90;75.60
52575;DHT22;38468;48.114;-1.684;2023-04-01T07:00:46;10.90;75.40
52575;DHT22;38468;48.114;-1.684;2023-04-01T07:03:02;11.00;75.20
52575;DHT22;38468;48.114;-1.684;2023-04-01T07:05:07;11.10;75.20
52575;DHT22;38468;48.114;-1.684;2023-04-01T07:09:35;11.30;74.50
52575;DHT22;38468;48.114;-1.684;2023-04-01T07:11:38;11.50;74.40
52575;DHT22;38468;48.114;-1.684;2023-04-01T07:14:01;11.70;74.30
52575;DHT22;38468;48.114;-1.684;2023-04-01T07:18:32;12.10;73.40
52575;DHT22;38468;48.114;-1.684;2023-04-01T07:20:37;12.20;72.60
52575;DHT22;38468;48.114;-1.684;2023-04-01T07:22:44;12.20;71.30
52575;DHT22;38468;48.114;-1.684;2023-04-01T07:24:46;12.40;72.20
52575;DHT22;38468;48.114;-1.684;2023-04-01T07:26:48;12.60;70.50
52575;DHT22;38468;48.114;-1.684;2023-04-01T07:28:51;12.70;71.30
52575;DHT22;38468;48.114;-1.684;2023-04-01T07:32:01;12.80;69.90
52575;DHT22;38468;48.114;-1.684;2023-04-01T07:38:14;13.20;70.00
52575;DHT22;38468;48.114;-1.684;2023-04-01T07:51:59;13.10;69.30
52575;DHT22;38468;48.114;-1.684;2023-04-01T07:54:19;13.00;68.30
52575;DHT22;38468;48.114;-1.684;2023-04-01T07:59:23;13.20;68.50
52575;DHT22;38468;48.114;-1.684;2023-04-01T08:08:49;14.10;65.70
52575;DHT22;38468;48.114;-1.684;2023-04-01T08:15:20;14.00;64.50
52575;DHT22;38468;48.114;-1.684;2023-04-01T08:17:45;13.80;64.70
52575;DHT22;38468;48.114;-1.684;2023-04-01T08:22:23;13.90;65.80
52575;DHT22;38468;48.114;-1.684;2023-04-01T08:24:59;14.00;66.10
52575;DHT22;38468;48.114;-1.684;2023-04-01T08:26:56;14.00;65.20
52575;DHT22;38468;48.114;-1.684;2023-04-01T08:29:09;13.90;64.80
52575;DHT22;38468;48.114;-1.684;2023-04-01T08:31:23;13.70;65.00
52575;DHT22;38468;48.114;-1.684;2023-04-01T08:33:30;13.80;65.90
52575;DHT22;38468;48.114;-1.684;2023-04-01T08:35:38;14.00;65.60
52575;DHT22;38468;48.114;-1.684;2023-04-01T08:37:41;13.90;64.80
52575;DHT22;38468;48.114;-1.684;2023-04-01T08:39:56;13.90;64.60
52575;DHT22;38468;48.114;-1.684;2023-04-01T08:56:31;14.40;64.80
52575;DHT22;38468;48.114;-1.684;2023-04-01T08:58:42;14.50;63.60
52575;DHT22;38468;48.114;-1.684;2023-04-01T09:12:32;15.70;61.50
52575;DHT22;38468;48.114;-1.684;2023-04-01T09:19:15;15.20;60.70
52575;DHT22;38468;48.114;-1.684;2023-04-01T09:35:46;14.00;62.50
52575;DHT22;38468;48.114;-1.684;2023-04-01T09:38:27;14.10;62.90
52575;DHT22;38468;48.114;-1.684;2023-04-01T09:41:10;14.00;62.20
52575;DHT22;38468;48.114;-1.684;2023-04-01T09:47:35;14.00;63.20
52575;DHT22;38468;48.114;-1.684;2023-04-01T09:52:09;13.60;63.20
52575;DHT22;38468;48.114;-1.684;2023-04-01T09:56:32;13.50;63.70
52575;DHT22;38468;48.114;-1.684;2023-04-01T10:47:44;14.50;62.60
52575;DHT22;38468;48.114;-1.684;2023-04-01T10:55:05;14.70;61.50
52575;DHT22;38468;48.114;-1.684;2023-04-01T10:57:38;15.00;61.60
52575;DHT22;38468;48.114;-1.684;2023-04-01T11:00:05;15.00;60.10
52575;DHT22;38468;48.114;-1.684;2023-04-01T11:12:08;14.90;58.60
52575;DHT22;38468;48.114;-1.684;2023-04-01T11:26:21;15.10;58.00
52575;DHT22;38468;48.114;-1.684;2023-04-01T11:33:24;14.50;62.00
52575;DHT22;38468;48.114;-1.684;2023-04-01T11:35:36;14.30;63.20
52575;DHT22;38468;48.114;-1.684;2023-04-01T11:44:43;13.90;66.90
52575;DHT22;38468;48.114;-1.684;2023-04-01T11:49:33;13.90;67.00
52575;DHT22;38468;48.114;-1.684;2023-04-01T11:59:05;13.90;67.60
52575;DHT22;38468;48.114;-1.684;2023-04-01T12:01:47;14.10;66.60
52575;DHT22;38468;48.114;-1.684;2023-04-01T12:13:08;14.50;66.10
52575;DHT22;38468;48.114;-1.684;2023-04-01T12:15:26;14.80;66.00
52575;DHT22;38468;48.114;-1.684;2023-04-01T12:17:52;14.90;66.30
52575;DHT22;38468;48.114;-1.684;2023-04-01T12:24:52;15.40;64.40
52575;DHT22;38468;48.114;-1.684;2023-04-01T12:52:15;14.50;58.50
52575;DHT22;38468;48.114;-1.684;2023-04-01T12:54:57;14.60;59.00
52575;DHT22;38468;48.114;-1.684;2023-04-01T13:09:07;14.20;57.60
52575;DHT22;38468;48.114;-1.684;2023-04-01T13:11:34;14.10;59.00
52575;DHT22;38468;48.114;-1.684;2023-04-01T13:18:21;13.90;60.40
52575;DHT22;38468;48.114;-1.684;2023-04-01T13:20:44;14.00;60.70
52575;DHT22;38468;48.114;-1.684;2023-04-01T13:22:57;14.00;60.60
52575;DHT22;38468;48.114;-1.684;2023-04-01T13:27:42;13.90;60.80
52575;DHT22;38468;48.114;-1.684;2023-04-01T13:32:18;13.90;61.00
52575;DHT22;38468;48.114;-1.684;2023-04-01T13:34:39;13.90;60.20
52575;DHT22;38468;48.114;-1.684;2023-04-01T13:37:16;13.90;60.60
52575;DHT22;38468;48.114;-1.684;2023-04-01T13:39:29;13.90;60.60
52575;DHT22;38468;48.114;-1.684;2023-04-01T13:44:17;13.80;60.90
52575;DHT22;38468;48.114;-1.684;2023-04-01T13:53:25;14.30;60.80
52575;DHT22;38468;48.114;-1.684;2023-04-01T14:00:25;14.30;60.90
52575;DHT22;38468;48.114;-1.684;2023-04-01T14:15:07;14.60;60.00
52575;DHT22;38468;48.114;-1.684;2023-04-01T14:34:43;14.40;60.40
52575;DHT22;38468;48.114;-1.684;2023-04-01T14:44:37;14.10;63.60
52575;DHT22;38468;48.114;-1.684;2023-04-01T14:51:02;14.50;63.80
52575;DHT22;38468;48.114;-1.684;2023-04-01T14:53:16;14.60;63.50
52575;DHT22;38468;48.114;-1.684;2023-04-01T14:57:39;14.80;63.00
52575;DHT22;38468;48.114;-1.684;2023-04-01T14:59:46;14.80;62.70
52575;DHT22;38468;48.114;-1.684;2023-04-01T15:16:23;14.50;60.30
52575;DHT22;38468;48.114;-1.684;2023-04-01T15:22:50;14.60;58.90
52575;DHT22;38468;48.114;-1.684;2023-04-01T15:34:23;14.50;56.80
52575;DHT22;38468;48.114;-1.684;2023-04-01T15:38:57;14.60;54.70
52575;DHT22;38468;48.114;-1.684;2023-04-01T15:41:15;14.50;54.80
52575;DHT22;38468;48.114;-1.684;2023-04-01T15:46:07;14.50;55.20
52575;DHT22;38468;48.114;-1.684;2023-04-01T15:52:55;14.60;54.10
52575;DHT22;38468;48.114;-1.684;2023-04-01T15:55:39;14.60;55.20
52575;DHT22;38468;48.114;-1.684;2023-04-01T15:58:16;14.60;54.70
52575;DHT22;38468;48.114;-1.684;2023-04-01T16:02:49;14.60;55.10
52575;DHT22;38468;48.114;-1.684;2023-04-01T16:09:48;14.80;55.20
52575;DHT22;38468;48.114;-1.684;2023-04-01T16:14:14;14.70;55.50
52575;DHT22;38468;48.114;-1.684;2023-04-01T16:16:35;14.60;56.70
52575;DHT22;38468;48.114;-1.684;2023-04-01T16:21:37;14.60;56.00
52575;DHT22;38468;48.114;-1.684;2023-04-01T16:23:49;14.50;56.20
52575;DHT22;38468;48.114;-1.684;2023-04-01T16:28:34;14.60;55.60
52575;DHT22;38468;48.114;-1.684;2023-04-01T16:30:55;14.60;56.00
52575;DHT22;38468;48.114;-1.684;2023-04-01T16:37:43;14.50;56.40
52575;DHT22;38468;48.114;-1.684;2023-04-01T16:42:49;14.50;57.60
52575;DHT22;38468;48.114;-1.684;2023-04-01T16:47:12;14.40;57.70
52575;DHT22;38468;48.114;-1.684;2023-04-01T16:51:52;14.40;58.00
52575;DHT22;38468;48.114;-1.684;2023-04-01T16:54:14;14.40;58.20
52575;DHT22;38468;48.114;-1.684;2023-04-01T16:56:24;14.40;58.20
52575;DHT22;38468;48.114;-1.684;2023-04-01T16:58:28;14.20;58.30
52575;DHT22;38468;48.114;-1.684;2023-04-01T17:00:40;14.10;57.80
52575;DHT22;38468;48.114;-1.684;2023-04-01T17:05:15;14.10;57.70
52575;DHT22;38468;48.114;-1.684;2023-04-01T17:09:28;14.00;57.70
52575;DHT22;38468;48.114;-1.684;2023-04-01T17:11:41;14.10;57.90
52575;DHT22;38468;48.114;-1.684;2023-04-01T17:22:37;14.00;58.50
52575;DHT22;38468;48.114;-1.684;2023-04-01T17:29:20;13.80;58.40
52575;DHT22;38468;48.114;-1.684;2023-04-01T17:33:58;13.70;59.00
52575;DHT22;38468;48.114;-1.684;2023-04-01T17:51:42;13.70;59.80
52575;DHT22;38468;48.114;-1.684;2023-04-01T17:56:17;13.60;60.10
52575;DHT22;38468;48.114;-1.684;2023-04-01T17:58:20;13.70;60.40
52575;DHT22;38468;48.114;-1.684;2023-04-01T18:00:26;13.60;60.60
52575;DHT22;38468;48.114;-1.684;2023-04-01T18:19:14;13.40;61.30
52575;DHT22;38468;48.114;-1.684;2023-04-01T18:21:47;13.40;61.10
52575;DHT22;38468;48.114;-1.684;2023-04-01T18:23:53;13.40;61.50
52575;DHT22;38468;48.114;-1.684;2023-04-01T18:26:05;13.30;61.70
52575;DHT22;38468;48.114;-1.684;2023-04-01T18:33:04;13.30;62.00
52575;DHT22;38468;48.114;-1.684;2023-04-01T18:35:28;13.30;62.40
52575;DHT22;38468;48.114;-1.684;2023-04-01T18:37:37;13.30;62.60
52575;DHT22;38468;48.114;-1.684;2023-04-01T18:39:47;13.30;62.80
52575;DHT22;38468;48.114;-1.684;2023-04-01T18:42:07;13.20;64.70
52575;DHT22;38468;48.114;-1.684;2023-04-01T18:44:47;13.30;65.30
52575;DHT22;38468;48.114;-1.684;2023-04-01T18:51:59;13.20;63.70
52575;DHT22;38468;48.114;-1.684;2023-04-01T18:54:19;13.00;64.00
52575;DHT22;38468;48.114;-1.684;2023-04-01T18:56:30;13.00;64.10
52575;DHT22;38468;48.114;-1.684;2023-04-01T18:58:36;12.90;64.40
52575;DHT22;38468;48.114;-1.684;2023-04-01T19:03:23;12.80;65.00
52575;DHT22;38468;48.114;-1.684;2023-04-01T19:05:52;12.70;65.20
52575;DHT22;38468;48.114;-1.684;2023-04-01T19:07:55;12.70;65.30
52575;DHT22;38468;48.114;-1.684;2023-04-01T19:09:59;12.60;65.60
52575;DHT22;38468;48.114;-1.684;2023-04-01T19:14:34;12.50;66.30
52575;DHT22;38468;48.114;-1.684;2023-04-01T19:17:24;12.50;66.40
52575;DHT22;38468;48.114;-1.684;2023-04-01T19:21:35;12.50;66.30
52575;DHT22;38468;48.114;-1.684;2023-04-01T19:26:17;12.50;66.60
52575;DHT22;38468;48.114;-1.684;2023-04-01T19:28:43;12.50;66.80
52575;DHT22;38468;48.114;-1.684;2023-04-01T19:31:08;12.50;66.80
52575;DHT22;38468;48.114;-1.684;2023-04-01T19:35:35;12.40;67.30
52575;DHT22;38468;48.114;-1.684;2023-04-01T19:42:26;12.40;67.40
52575;DHT22;38468;48.114;-1.684;2023-04-01T19:46:53;12.40;67.90
52575;DHT22;38468;48.114;-1.684;2023-04-01T19:51:17;12.40;68.10
52575;DHT22;38468;48.114;-1.684;2023-04-01T19:53:31;12.40;68.40
52575;DHT22;38468;48.114;-1.684;2023-04-01T19:55:48;12.40;68.50
52575;DHT22;38468;48.114;-1.684;2023-04-01T20:02:50;12.40;68.80
52575;DHT22;38468;48.114;-1.684;2023-04-01T20:04:55;12.30;69.10
52575;DHT22;38468;48.114;-1.684;2023-04-01T20:07:29;12.30;69.20
52575;DHT22;38468;48.114;-1.684;2023-04-01T20:14:54;12.30;69.30
52575;DHT22;38468;48.114;-1.684;2023-04-01T20:19:13;12.30;69.80
52575;DHT22;38468;48.114;-1.684;2023-04-01T20:25:49;12.20;70.30
52575;DHT22;38468;48.114;-1.684;2023-04-01T20:28:12;12.20;70.00
52575;DHT22;38468;48.114;-1.684;2023-04-01T20:32:43;12.20;70.10
52575;DHT22;38468;48.114;-1.684;2023-04-01T20:39:39;12.20;70.30
52575;DHT22;38468;48.114;-1.684;2023-04-01T20:48:56;12.20;70.90
52575;DHT22;38468;48.114;-1.684;2023-04-01T20:51:07;12.10;70.90
52575;DHT22;38468;48.114;-1.684;2023-04-01T21:12:41;12.00;72.70
52575;DHT22;38468;48.114;-1.684;2023-04-01T21:19:39;11.90;74.00
52575;DHT22;38468;48.114;-1.684;2023-04-01T21:26:52;11.90;74.80
52575;DHT22;38468;48.114;-1.684;2023-04-01T21:29:13;11.90;75.00
52575;DHT22;38468;48.114;-1.684;2023-04-01T21:41:45;11.90;75.20
52575;DHT22;38468;48.114;-1.684;2023-04-01T21:49:04;11.80;75.60
52575;DHT22;38468;48.114;-1.684;2023-04-01T21:51:17;11.80;75.90
52575;DHT22;38468;48.114;-1.684;2023-04-01T22:07:20;11.80;75.70
52575;DHT22;38468;48.114;-1.684;2023-04-01T22:09:25;11.80;75.70
52575;DHT22;38468;48.114;-1.684;2023-04-01T22:11:34;11.70;76.00
52575;DHT22;38468;48.114;-1.684;2023-04-01T22:14:09;11.70;75.90
52575;DHT22;38468;48.114;-1.684;2023-04-01T22:16:37;11.70;76.00
52575;DHT22;38468;48.114;-1.684;2023-04-01T22:19:04;11.70;75.90
52575;DHT22;38468;48.114;-1.684;2023-04-01T22:21:18;11.70;75.90
52575;DHT22;38468;48.114;-1.684;2023-04-01T22:23:43;11.70;76.10
52575;DHT22;38468;48.114;-1.684;2023-04-01T22:25:57;11.70;76.10
52575;DHT22;38468;48.114;-1.684;2023-04-01T22:28:09;11.70;76.20
52575;DHT22;38468;48.114;-1.684;2023-04-01T22:32:25;11.70;76.20
52575;DHT22;38468;48.114;-1.684;2023-04-01T22:34:45;11.70;75.90
52575;DHT22;38468;48.114;-1.684;2023-04-01T22:37:08;11.70;76.40
52575;DHT22;38468;48.114;-1.684;2023-04-01T22:43:38;11.60;76.40
52575;DHT22;38468;48.114;-1.684;2023-04-01T22:45:44;11.70;76.60
52575;DHT22;38468;48.114;-1.684;2023-04-01T22:53:00;11.60;76.70
52575;DHT22;38468;48.114;-1.684;2023-04-01T22:55:20;11.50;76.80
52575;DHT22;38468;48.114;-1.684;2023-04-01T22:58:03;11.50;76.60
52575;DHT22;38468;48.114;-1.684;2023-04-01T23:02:36;11.50;76.90
52575;DHT22;38468;48.114;-1.684;2023-04-01T23:04:42;11.50;76.90
52575;DHT22;38468;48.114;-1.684;2023-04-01T23:06:48;11.50;76.80
52575;DHT22;38468;48.114;-1.684;2023-04-01T23:11:13;11.40;77.10
52575;DHT22;38468;48.114;-1.684;2023-04-01T23:13:22;11.40;77.30
52575;DHT22;38468;48.114;-1.684;2023-04-01T23:15:25;11.30;77.40
52575;DHT22;38468;48.114;-1.684;2023-04-01T23:21:59;11.30;77.50
52575;DHT22;38468;48.114;-1.684;2023-04-01T23:28:56;11.20;77.80
52575;DHT22;38468;48.114;-1.684;2023-04-01T23:30:57;11.10;78.00
52575;DHT22;38468;48.114;-1.684;2023-04-01T23:35:19;11.10;78.00
52575;DHT22;38468;48.114;-1.684;2023-04-01T23:37:21;11.10;77.80
52575;DHT22;38468;48.114;-1.684;2023-04-01T23:39:23;11.10;77.80
52575;DHT22;38468;48.114;-1.684;2023-04-01T23:41:28;11.10;77.70
52575;DHT22;38468;48.114;-1.684;2023-04-01T23:43:35;11.10;77.90